VGS146 EDDL-EHEH
Flight info
| Callsign | VGS146 |
|---|---|
| Flight time | 0h 41m |
| Altitude | 8000 |
| Route | LMA2Z LMA DCT VEBAK/N0177F070 T474 LAA/N0177F080 DCT ROTEK |
| Aircraft | K100/L-SBDGRY/S |
Departure
| Time | 2026-05-07 17:16 |
|---|---|
| Airport | Düsseldorf Airport (EDDL) |
Arrival
| Time | 2026-05-07 17:57 |
|---|---|
| Airport | Eindhoven Airport (EHEH) |
| Time | Latitude | Longitude | Altitude | Speed | Heading |
|---|---|---|---|---|---|
| 2026-05-07 16:57 | 51.27436 | 6.75299 | 133 ft | 0 kts | 271° |
| 2026-05-07 17:13 | 51.27437 | 6.75295 | 133 ft | 1 kts | 315° |
| 2026-05-07 17:13 | 51.27469 | 6.75279 | 133 ft | 7 kts | 315° |
| 2026-05-07 17:13 | 51.27525 | 6.75212 | 133 ft | 12 kts | 340° |
| 2026-05-07 17:14 | 51.27617 | 6.75182 | 133 ft | 15 kts | 360° |
| 2026-05-07 17:14 | 51.27711 | 6.75195 | 133 ft | 11 kts | 7° |
| 2026-05-07 17:14 | 51.27758 | 6.75240 | 133 ft | 9 kts | 45° |
| 2026-05-07 17:14 | 51.27802 | 6.75333 | 133 ft | 11 kts | 49° |
| 2026-05-07 17:15 | 51.27872 | 6.75317 | 132 ft | 12 kts | 347° |
| 2026-05-07 17:15 | 51.27968 | 6.75267 | 127 ft | 18 kts | 3° |
| 2026-05-07 17:15 | 51.28013 | 6.75309 | 126 ft | 1 kts | 52° |
| 2026-05-07 17:15 | 51.28124 | 6.75548 | 128 ft | 66 kts | 53° |
| 2026-05-07 17:16 | 51.28517 | 6.76396 | 222 ft | 113 kts | 49° |
| 2026-05-07 17:16 | 51.29057 | 6.77413 | 529 ft | 125 kts | 50° |
| 2026-05-07 17:16 | 51.29600 | 6.78560 | 817 ft | 137 kts | 53° |
| 2026-05-07 17:16 | 51.30163 | 6.79880 | 1054 ft | 148 kts | 60° |
| 2026-05-07 17:17 | 51.30741 | 6.81279 | 1285 ft | 153 kts | 52° |
| 2026-05-07 17:17 | 51.31416 | 6.82610 | 1536 ft | 154 kts | 50° |
| 2026-05-07 17:17 | 51.32091 | 6.83944 | 1794 ft | 154 kts | 51° |
| 2026-05-07 17:17 | 51.32744 | 6.85305 | 2048 ft | 154 kts | 52° |
| 2026-05-07 17:18 | 51.33379 | 6.86685 | 2309 ft | 155 kts | 55° |
| 2026-05-07 17:18 | 51.34002 | 6.88096 | 2567 ft | 156 kts | 53° |
| 2026-05-07 17:18 | 51.34649 | 6.89485 | 2823 ft | 155 kts | 47° |
| 2026-05-07 17:18 | 51.35524 | 6.90467 | 3081 ft | 155 kts | 22° |
| 2026-05-07 17:19 | 51.36575 | 6.90852 | 3337 ft | 155 kts | 9° |
| 2026-05-07 17:19 | 51.37646 | 6.91130 | 3589 ft | 156 kts | 10° |
| 2026-05-07 17:19 | 51.38717 | 6.91421 | 3845 ft | 155 kts | 11° |
| 2026-05-07 17:19 | 51.39782 | 6.91708 | 4102 ft | 155 kts | 10° |
| 2026-05-07 17:20 | 51.40846 | 6.91994 | 4362 ft | 155 kts | 10° |
| 2026-05-07 17:20 | 51.41914 | 6.92279 | 4625 ft | 156 kts | 9° |
| 2026-05-07 17:20 | 51.42990 | 6.92565 | 4884 ft | 157 kts | 9° |
| 2026-05-07 17:20 | 51.44088 | 6.92859 | 4994 ft | 165 kts | 9° |
| 2026-05-07 17:21 | 51.45247 | 6.93172 | 4994 ft | 171 kts | 9° |
| 2026-05-07 17:21 | 51.46426 | 6.93485 | 4994 ft | 173 kts | 9° |
| 2026-05-07 17:21 | 51.47618 | 6.93760 | 4995 ft | 173 kts | 2° |
| 2026-05-07 17:21 | 51.48803 | 6.93411 | 4997 ft | 175 kts | 339° |
| 2026-05-07 17:22 | 51.49831 | 6.92381 | 4996 ft | 176 kts | 318° |
| 2026-05-07 17:22 | 51.50552 | 6.90794 | 4999 ft | 178 kts | 296° |
| 2026-05-07 17:22 | 51.50992 | 6.88939 | 5001 ft | 178 kts | 292° |
| 2026-05-07 17:22 | 51.51446 | 6.87083 | 5003 ft | 179 kts | 293° |
| 2026-05-07 17:23 | 51.51898 | 6.85219 | 5006 ft | 179 kts | 292° |
| 2026-05-07 17:23 | 51.52346 | 6.83352 | 5007 ft | 179 kts | 292° |
| 2026-05-07 17:23 | 51.52794 | 6.81480 | 5003 ft | 179 kts | 293° |
| 2026-05-07 17:23 | 51.53242 | 6.79612 | 5005 ft | 179 kts | 292° |
| 2026-05-07 17:24 | 51.53687 | 6.77740 | 5000 ft | 179 kts | 292° |
| 2026-05-07 17:24 | 51.54134 | 6.75874 | 5001 ft | 179 kts | 292° |
| 2026-05-07 17:24 | 51.54584 | 6.73997 | 4998 ft | 180 kts | 292° |
| 2026-05-07 17:24 | 51.55033 | 6.72108 | 4999 ft | 182 kts | 292° |
| 2026-05-07 17:25 | 51.55333 | 6.70850 | 4995 ft | 182 kts | 292° |
| 2026-05-07 17:25 | 51.55783 | 6.68951 | 4998 ft | 181 kts | 290° |
| 2026-05-07 17:25 | 51.55932 | 6.66950 | 4994 ft | 183 kts | 265° |
| 2026-05-07 17:25 | 51.55565 | 6.65001 | 4997 ft | 184 kts | 244° |
| 2026-05-07 17:26 | 51.54959 | 6.63180 | 5003 ft | 185 kts | 244° |
| 2026-05-07 17:26 | 51.54373 | 6.61325 | 5001 ft | 186 kts | 244° |
| 2026-05-07 17:26 | 51.53782 | 6.59472 | 5003 ft | 187 kts | 243° |
| 2026-05-07 17:26 | 51.53184 | 6.57627 | 5002 ft | 186 kts | 243° |
| 2026-05-07 17:27 | 51.52591 | 6.55786 | 5001 ft | 185 kts | 243° |
| 2026-05-07 17:27 | 51.51998 | 6.53945 | 5006 ft | 186 kts | 244° |
| 2026-05-07 17:27 | 51.51395 | 6.52086 | 5003 ft | 191 kts | 244° |
| 2026-05-07 17:27 | 51.50779 | 6.50161 | 5002 ft | 197 kts | 245° |
| 2026-05-07 17:28 | 51.50148 | 6.48208 | 4986 ft | 195 kts | 243° |
| 2026-05-07 17:28 | 51.49528 | 6.46312 | 4984 ft | 189 kts | 243° |
| 2026-05-07 17:28 | 51.48922 | 6.44454 | 4984 ft | 186 kts | 243° |
| 2026-05-07 17:28 | 51.48329 | 6.42612 | 4983 ft | 186 kts | 244° |
| 2026-05-07 17:29 | 51.47735 | 6.40776 | 4986 ft | 185 kts | 243° |
| 2026-05-07 17:29 | 51.47141 | 6.38948 | 4984 ft | 185 kts | 243° |
| 2026-05-07 17:29 | 51.46548 | 6.37121 | 4984 ft | 185 kts | 243° |
| 2026-05-07 17:29 | 51.45879 | 6.35404 | 4986 ft | 185 kts | 227° |
| 2026-05-07 17:30 | 51.44828 | 6.34233 | 4985 ft | 185 kts | 203° |
| 2026-05-07 17:30 | 51.43603 | 6.33524 | 4988 ft | 185 kts | 199° |
| 2026-05-07 17:30 | 51.42487 | 6.32604 | 4987 ft | 184 kts | 227° |
| 2026-05-07 17:30 | 51.42105 | 6.30703 | 4996 ft | 181 kts | 279° |
| 2026-05-07 17:31 | 51.42672 | 6.29006 | 5004 ft | 178 kts | 322° |
| 2026-05-07 17:31 | 51.43811 | 6.28400 | 5004 ft | 176 kts | 5° |
| 2026-05-07 17:31 | 51.44887 | 6.29232 | 5004 ft | 176 kts | 48° |
| 2026-05-07 17:31 | 51.45354 | 6.31025 | 5001 ft | 176 kts | 74° |
| 2026-05-07 17:32 | 51.46036 | 6.32589 | 5003 ft | 175 kts | 32° |
| 2026-05-07 17:32 | 51.47206 | 6.33010 | 5002 ft | 175 kts | 1° |
| 2026-05-07 17:32 | 51.48426 | 6.32977 | 5005 ft | 176 kts | 359° |
| 2026-05-07 17:32 | 51.49591 | 6.32464 | 5002 ft | 177 kts | 329° |
| 2026-05-07 17:33 | 51.50375 | 6.30964 | 5000 ft | 179 kts | 298° |
| 2026-05-07 17:33 | 51.50749 | 6.29070 | 5004 ft | 181 kts | 272° |
| 2026-05-07 17:33 | 51.50641 | 6.27050 | 5004 ft | 182 kts | 265° |
| 2026-05-07 17:33 | 51.50522 | 6.25024 | 5001 ft | 183 kts | 265° |
| 2026-05-07 17:34 | 51.50412 | 6.22996 | 5003 ft | 182 kts | 266° |
| 2026-05-07 17:34 | 51.50302 | 6.20969 | 4999 ft | 183 kts | 266° |
| 2026-05-07 17:34 | 51.50188 | 6.18937 | 5003 ft | 183 kts | 265° |
| 2026-05-07 17:34 | 51.50076 | 6.16907 | 5003 ft | 183 kts | 266° |
| 2026-05-07 17:35 | 51.49967 | 6.14877 | 5002 ft | 183 kts | 266° |
| 2026-05-07 17:35 | 51.49854 | 6.12843 | 5000 ft | 183 kts | 265° |
| 2026-05-07 17:35 | 51.49742 | 6.10810 | 5002 ft | 183 kts | 266° |
| 2026-05-07 17:35 | 51.49627 | 6.08775 | 5002 ft | 183 kts | 266° |
| 2026-05-07 17:36 | 51.49511 | 6.06741 | 5002 ft | 183 kts | 266° |
| 2026-05-07 17:36 | 51.49395 | 6.04707 | 4999 ft | 183 kts | 265° |
| 2026-05-07 17:36 | 51.49283 | 6.02677 | 5002 ft | 183 kts | 265° |
| 2026-05-07 17:36 | 51.49173 | 6.00651 | 5002 ft | 182 kts | 266° |
| 2026-05-07 17:37 | 51.49062 | 5.98623 | 5002 ft | 183 kts | 266° |
| 2026-05-07 17:37 | 51.48948 | 5.96592 | 4998 ft | 182 kts | 266° |
| 2026-05-07 17:37 | 51.48836 | 5.94566 | 5004 ft | 182 kts | 265° |
| 2026-05-07 17:37 | 51.48728 | 5.92544 | 5005 ft | 182 kts | 265° |
| 2026-05-07 17:38 | 51.48621 | 5.90528 | 5006 ft | 181 kts | 266° |
| 2026-05-07 17:38 | 51.48514 | 5.88512 | 5006 ft | 182 kts | 266° |
| 2026-05-07 17:38 | 51.48403 | 5.86489 | 5021 ft | 182 kts | 265° |
| 2026-05-07 17:38 | 51.48293 | 5.84465 | 5021 ft | 182 kts | 266° |
| 2026-05-07 17:39 | 51.48178 | 5.82438 | 5021 ft | 182 kts | 266° |
| 2026-05-07 17:39 | 51.48063 | 5.80412 | 5022 ft | 182 kts | 265° |
| 2026-05-07 17:39 | 51.47951 | 5.78388 | 5022 ft | 181 kts | 265° |
| 2026-05-07 17:39 | 51.47838 | 5.76372 | 5023 ft | 182 kts | 265° |
| 2026-05-07 17:40 | 51.47729 | 5.74345 | 5023 ft | 183 kts | 265° |
| 2026-05-07 17:40 | 51.47629 | 5.72310 | 5023 ft | 183 kts | 265° |
| 2026-05-07 17:40 | 51.47496 | 5.70281 | 5021 ft | 183 kts | 255° |
| 2026-05-07 17:40 | 51.46886 | 5.68513 | 5022 ft | 182 kts | 233° |
| 2026-05-07 17:41 | 51.46123 | 5.66885 | 5020 ft | 183 kts | 232° |
| 2026-05-07 17:41 | 51.45361 | 5.65251 | 5019 ft | 183 kts | 233° |
| 2026-05-07 17:41 | 51.44600 | 5.63618 | 5022 ft | 183 kts | 232° |
| 2026-05-07 17:41 | 51.43833 | 5.61981 | 5026 ft | 183 kts | 232° |
| 2026-05-07 17:42 | 51.43069 | 5.60349 | 5026 ft | 183 kts | 232° |
| 2026-05-07 17:42 | 51.42308 | 5.58714 | 5027 ft | 183 kts | 232° |
| 2026-05-07 17:42 | 51.41550 | 5.57077 | 5026 ft | 183 kts | 232° |
| 2026-05-07 17:42 | 51.40791 | 5.55442 | 5023 ft | 183 kts | 232° |
| 2026-05-07 17:43 | 51.40048 | 5.53834 | 4837 ft | 180 kts | 233° |
| 2026-05-07 17:43 | 51.39300 | 5.52211 | 4335 ft | 182 kts | 233° |
| 2026-05-07 17:43 | 51.38548 | 5.50592 | 3858 ft | 181 kts | 233° |
| 2026-05-07 17:43 | 51.37797 | 5.48986 | 3380 ft | 180 kts | 233° |
| 2026-05-07 17:44 | 51.37045 | 5.47384 | 2895 ft | 179 kts | 233° |
| 2026-05-07 17:44 | 51.36286 | 5.45780 | 2409 ft | 178 kts | 233° |
| 2026-05-07 17:44 | 51.35540 | 5.44222 | 2008 ft | 172 kts | 233° |
| 2026-05-07 17:44 | 51.34850 | 5.42809 | 1991 ft | 152 kts | 232° |
| 2026-05-07 17:45 | 51.34218 | 5.41524 | 1981 ft | 142 kts | 232° |
| 2026-05-07 17:45 | 51.33617 | 5.40304 | 1981 ft | 138 kts | 232° |
| 2026-05-07 17:45 | 51.33030 | 5.39114 | 1982 ft | 135 kts | 232° |
| 2026-05-07 17:45 | 51.32451 | 5.37934 | 1969 ft | 134 kts | 232° |
| 2026-05-07 17:46 | 51.31874 | 5.36764 | 1971 ft | 134 kts | 232° |
| 2026-05-07 17:46 | 51.31297 | 5.35593 | 1970 ft | 134 kts | 233° |
| 2026-05-07 17:46 | 51.30719 | 5.34423 | 1973 ft | 134 kts | 233° |
| 2026-05-07 17:46 | 51.30144 | 5.33253 | 1973 ft | 134 kts | 233° |
| 2026-05-07 17:47 | 51.29567 | 5.32085 | 1973 ft | 134 kts | 232° |
| 2026-05-07 17:47 | 51.28992 | 5.30916 | 1974 ft | 133 kts | 233° |
| 2026-05-07 17:47 | 51.28418 | 5.29752 | 1974 ft | 133 kts | 232° |
| 2026-05-07 17:47 | 51.27845 | 5.28591 | 1974 ft | 133 kts | 232° |
| 2026-05-07 17:48 | 51.27273 | 5.27429 | 1973 ft | 133 kts | 232° |
| 2026-05-07 17:48 | 51.26700 | 5.26268 | 1973 ft | 133 kts | 232° |
| 2026-05-07 17:48 | 51.26314 | 5.24975 | 1977 ft | 131 kts | 272° |
| 2026-05-07 17:48 | 51.26652 | 5.23662 | 1990 ft | 129 kts | 303° |
| 2026-05-07 17:49 | 51.27121 | 5.22430 | 1992 ft | 130 kts | 302° |
| 2026-05-07 17:49 | 51.27590 | 5.21192 | 1993 ft | 130 kts | 302° |
| 2026-05-07 17:49 | 51.28059 | 5.19950 | 1992 ft | 131 kts | 302° |
| 2026-05-07 17:49 | 51.28582 | 5.18771 | 1992 ft | 130 kts | 304° |
| 2026-05-07 17:50 | 51.29075 | 5.17561 | 1976 ft | 131 kts | 317° |
| 2026-05-07 17:50 | 51.29894 | 5.17184 | 1995 ft | 126 kts | 17° |
| 2026-05-07 17:50 | 51.30506 | 5.18111 | 1997 ft | 125 kts | 63° |
| 2026-05-07 17:50 | 51.30900 | 5.19363 | 1996 ft | 126 kts | 63° |
| 2026-05-07 17:51 | 51.31309 | 5.20607 | 1992 ft | 127 kts | 62° |
| 2026-05-07 17:51 | 51.31745 | 5.21832 | 1991 ft | 126 kts | 54° |
| 2026-05-07 17:51 | 51.32263 | 5.22962 | 1988 ft | 126 kts | 47° |
| 2026-05-07 17:51 | 51.32940 | 5.23841 | 1998 ft | 126 kts | 39° |
| 2026-05-07 17:52 | 51.33639 | 5.24689 | 1996 ft | 126 kts | 37° |
| 2026-05-07 17:52 | 51.34351 | 5.25519 | 1998 ft | 127 kts | 37° |
| 2026-05-07 17:52 | 51.35057 | 5.26329 | 2001 ft | 122 kts | 35° |
| 2026-05-07 17:52 | 51.35720 | 5.27064 | 2004 ft | 109 kts | 35° |
| 2026-05-07 17:53 | 51.36326 | 5.27739 | 1980 ft | 105 kts | 35° |
| 2026-05-07 17:53 | 51.36927 | 5.28417 | 1859 ft | 102 kts | 36° |
| 2026-05-07 17:53 | 51.37494 | 5.29040 | 1732 ft | 96 kts | 34° |
| 2026-05-07 17:53 | 51.38032 | 5.29644 | 1590 ft | 94 kts | 34° |
| 2026-05-07 17:54 | 51.38561 | 5.30237 | 1464 ft | 92 kts | 34° |
| 2026-05-07 17:54 | 51.39084 | 5.30819 | 1338 ft | 91 kts | 34° |
| 2026-05-07 17:54 | 51.39603 | 5.31401 | 1214 ft | 91 kts | 34° |
| 2026-05-07 17:54 | 51.40119 | 5.31974 | 1089 ft | 90 kts | 34° |
| 2026-05-07 17:55 | 51.40628 | 5.32542 | 964 ft | 89 kts | 34° |
| 2026-05-07 17:55 | 51.41134 | 5.33110 | 839 ft | 89 kts | 34° |
| 2026-05-07 17:55 | 51.41642 | 5.33679 | 712 ft | 89 kts | 34° |
| 2026-05-07 17:55 | 51.42145 | 5.34242 | 593 ft | 88 kts | 34° |
| 2026-05-07 17:56 | 51.42640 | 5.34796 | 475 ft | 86 kts | 34° |
| 2026-05-07 17:56 | 51.43126 | 5.35335 | 360 ft | 83 kts | 34° |
| 2026-05-07 17:56 | 51.43593 | 5.35866 | 248 ft | 81 kts | 34° |
| 2026-05-07 17:56 | 51.44046 | 5.36371 | 144 ft | 78 kts | 34° |
| 2026-05-07 17:57 | 51.44477 | 5.36849 | 71 ft | 73 kts | 34° |
| 2026-05-07 17:57 | 51.44743 | 5.37144 | 70 ft | 64 kts | 30° |
| 2026-05-07 17:57 | 51.45084 | 5.37531 | 69 ft | 33 kts | 35° |
| 2026-05-07 17:57 | 51.45271 | 5.37738 | 68 ft | 31 kts | 34° |
| 2026-05-07 17:58 | 51.45390 | 5.37831 | 74 ft | 13 kts | 345° |
| 2026-05-07 17:58 | 51.45428 | 5.37766 | 72 ft | 4 kts | 303° |
| 2026-05-07 17:58 | 51.45429 | 5.37765 | 72 ft | 0 kts | 303° |
| 2026-05-07 17:58 | 51.45432 | 5.37758 | 70 ft | 3 kts | 304° |
| 2026-05-07 17:59 | 51.45452 | 5.37714 | 71 ft | 0 kts | 308° |
| 2026-05-07 17:59 | 51.45456 | 5.37706 | 71 ft | 3 kts | 304° |
| 2026-05-07 17:59 | 51.45476 | 5.37659 | 71 ft | 7 kts | 308° |
| 2026-05-07 18:00 | 51.45511 | 5.37579 | 67 ft | 10 kts | 301° |
| 2026-05-07 18:00 | 51.45557 | 5.37474 | 71 ft | 12 kts | 311° |
| 2026-05-07 18:00 | 51.45611 | 5.37401 | 71 ft | 10 kts | 33° |
| 2026-05-07 18:00 | 51.45650 | 5.37510 | 70 ft | 13 kts | 60° |
| 2026-05-07 18:01 | 51.45704 | 5.37638 | 68 ft | 16 kts | 53° |
| 2026-05-07 18:01 | 51.45757 | 5.37747 | 67 ft | 3 kts | 359° |
| 2026-05-07 18:01 | 51.45764 | 5.37739 | 69 ft | 0 kts | 322° |